• Join FlightAware (Why Join?)
  • Login
  • US Flag 
09:51PM EST


 

Airport Tracker/Info


-or-


 

Live Flight TrackerFlight Track Log ✈ ASQ5740 ✈ 20-Apr-2013 ✈ KIAD - KBTV

Flight Track Log - Related Links

Times and Time Zones

All times are in EDT time to prevent confusion due to time zone crossing. See the ASQ5740 flight status page for this flight to view local times or setup timezone preferences in your user account.

Time Position Orientation Groundspeed Altitude Reporting Facility
EDT Latitude Longitude Course Direction KTS MPH feet Rate Location/Type
12:44PM 38.9833 -77.4333 78° East 184 212 2,500  Level Potomac TRACON
12:45PM 39.0500 -77.4500 349° North 245 282 4,900 3,120 Climbing Potomac TRACON
12:46PM 39.1167 -77.4667 349° North 257 296 8,800 2,520 Climbing Potomac TRACON
12:47PM 39.0376 -76.8661 72° East  Level FlightAware Approximate
12:47PM 39.1833 -77.4333 21° North 308 354 10,000  Level Potomac TRACON
12:48PM 39.0578 -76.7186 72° East  Level FlightAware Approximate
12:48PM 39.2000 -77.3000 81° East 399 459 10,100  Level Potomac TRACON
12:49PM 39.0833 -76.5732 90° East  Level FlightAware Approximate
12:50PM 39.1070 -76.4247 78° East  Level FlightAware Approximate
12:50PM 39.0872 -77.1078 127° Southeast 411 473 13,100  Level Washington Center
12:51PM 39.0681 -76.9683 100° East 389 448 15,400 1,920 Climbing Washington Center
12:52PM 39.0844 -76.8136 82° East 395 455 17,000 1,200 Climbing Washington Center
12:53PM 39.1025 -76.6561 82° East 418 481 17,900 900 Climbing Washington Center
12:54PM 39.1183 -76.4906 83° East 448 516 18,900 1,140 Climbing Washington Center
12:55PM 39.1383 -76.3194 81° East 460 529 20,200 1,320 Climbing Washington Center
12:56PM 39.1622 -76.1564 79° East 468 539 21,600 1,260 Climbing Washington Center
12:57PM 39.1836 -75.9853 81° East 468 539 22,800 660 Climbing Washington Center
12:58PM 39.2383 -75.8219 67° East 473 544 23,000 300 Climbing Washington Center
12:59PM 39.3633 -75.7150 33° Northeast 491 565 23,400 540 Climbing Washington Center
01:00PM 39.4947 -75.6211 29° Northeast 496 571 24,100 660 Climbing Washington Center
01:01PM 39.6281 -75.5242 29° Northeast 529 609 24,800 600 Climbing Washington Center
01:02PM 39.7281 -75.3703 50° Northeast 538 619 25,300 480 Climbing Washington Center
01:03PM 39.8108 -75.2025 57° Northeast 538 619 25,800 480 Climbing Washington Center
01:04PM 39.8839 -75.0453 59° Northeast 555 639 26,300 480 Climbing New York Center
01:05PM 39.9733 -74.8744 56° Northeast 561 646 26,800 480 Climbing New York Center
01:06PM 40.0606 -74.7061 56° Northeast 561 646 27,300 540 Climbing New York Center
01:07PM 40.1783 -74.5389 47° Northeast 561 646 27,900 420 Climbing New York Center
01:08PM 40.3078 -74.4669 23° Northeast 572 658 28,200 360 Climbing New York Center
01:09PM 40.4614 -74.4261 11° North 546 628 28,700 540 Climbing New York Center
01:10PM 40.6131 -74.3714 15° North 552 635 29,300 540 Climbing New York Center
01:11PM 40.7458 -74.2525 34° Northeast 552 635 29,800 480 Climbing New York Center
01:14PM 41.0869 -74.0017 29° Northeast 543 625 31,000 300 Climbing Boston Center
01:15PM 41.2436 -73.9833 North 543 625 31,000  Level Boston Center
01:16PM 41.4022 -73.9678 North 550 633 31,000  Level Boston Center
01:17PM 41.5631 -73.9467 North 568 654 31,000  Level Boston Center
01:18PM 41.7217 -73.9281 North 575 662 31,000  Level Boston Center
01:19PM 41.8656 -73.9119 North 575 662 31,000  Level Boston Center
01:20PM 42.0283 -73.8933 North 575 662 31,000  Level Boston Center
01:21PM 42.1892 -73.8747 North 580 667 31,000  Level Boston Center
01:22PM 42.3542 -73.8561 North 580 667 31,000  Level Boston Center
01:23PM 42.5189 -73.8344 North 586 674 31,000  Level Boston Center
01:24PM 42.6964 -73.8131 North 586 674 31,000 -300 Level Boston Center
01:25PM 42.8594 -73.7686 11° North 592 681 30,500 -780 Descending Boston Center
01:26PM 43.0311 -73.7125 13° North 610 702 29,500 -1,140 Descending Boston Center
01:27PM 43.1775 -73.6644 13° North 615 708 28,300 -1,740 Descending Boston Center
01:28PM 43.3386 -73.6047 15° North 604 695 26,100 -2,340 Descending Boston Center
01:29PM 43.4914 -73.5447 16° North 584 672 23,700 -2,700 Descending Boston Center
01:30PM 43.6356 -73.4900 15° North 556 640 20,700 -3,360 Descending Boston Center
01:31PM 43.7967 -73.4267 16° North 509 586 16,400 -3,180 Descending Boston Center
01:32PM 43.9242 -73.3769 16° North 458 527 13,800 -2,460 Descending Boston Center
01:33PM 44.0225 -73.3350 17° North 388 447 11,500 -1,500 Descending Boston Center
01:34PM 44.1186 -73.2961 16° North 354 407 10,900 -1,260 Descending Boston Center
01:35PM 44.1919 -73.2364 30° Northeast 311 358 9,000 -1,920 Descending Boston Center
01:36PM 44.2631 -73.1764 31° Northeast 298 343 7,100 -1,620 Descending Boston Center
01:37PM 44.3117 -73.0869 53° Northeast 281 323 5,800 -840 Descending Boston Center
01:38PM 44.3372 -72.9917 69° East 268 308 5,500 -240 Descending Boston Center
01:39PM 44.3869 -72.9978 355° North 167 192 5,400 -120 Descending Boston Center